ABI146 ZJQH-VHHH
Flight info
| Callsign | ABI146 |
|---|---|
| Flight time | 1h 5m |
| Altitude | 22600 |
| Route | DOBVI8ZD DOBVI DCT NUMKU W222 SAMAS/N0329F210 DCT CANTO |
| Aircraft | DH8D/M-SDE2E3FGRY/H |
Departure
| Time | 2026-05-09 10:57 |
|---|---|
| Airport | Qionghai Bo'ao Airport (ZJQH) |
Arrival
| Time | 2026-05-09 12:03 |
|---|---|
| Airport | Hong Kong International Airport (VHHH) |
| Time | Latitude | Longitude | Altitude | Speed | Heading |
|---|---|---|---|---|---|
| 2026-05-09 10:39 | 19.13553 | 110.45886 | 38 ft | 0 kts | 60° |
| 2026-05-09 10:50 | 19.13553 | 110.45887 | 38 ft | 0 kts | 60° |
| 2026-05-09 10:50 | 19.13548 | 110.45878 | 37 ft | 2 kts | 60° |
| 2026-05-09 10:50 | 19.13543 | 110.45863 | 37 ft | 2 kts | 86° |
| 2026-05-09 10:51 | 19.13545 | 110.45847 | 37 ft | 2 kts | 110° |
| 2026-05-09 10:51 | 19.13552 | 110.45834 | 38 ft | 2 kts | 134° |
| 2026-05-09 10:51 | 19.13561 | 110.45827 | 38 ft | 1 kts | 150° |
| 2026-05-09 10:51 | 19.13562 | 110.45827 | 38 ft | 0 kts | 150° |
| 2026-05-09 10:53 | 19.13557 | 110.45830 | 38 ft | 3 kts | 150° |
| 2026-05-09 10:53 | 19.13529 | 110.45847 | 37 ft | 5 kts | 148° |
| 2026-05-09 10:53 | 19.13489 | 110.45866 | 35 ft | 6 kts | 175° |
| 2026-05-09 10:54 | 19.13446 | 110.45843 | 35 ft | 7 kts | 236° |
| 2026-05-09 10:54 | 19.13416 | 110.45792 | 34 ft | 8 kts | 239° |
| 2026-05-09 10:54 | 19.13370 | 110.45759 | 33 ft | 8 kts | 176° |
| 2026-05-09 10:54 | 19.13311 | 110.45782 | 32 ft | 9 kts | 154° |
| 2026-05-09 10:55 | 19.13254 | 110.45812 | 31 ft | 8 kts | 151° |
| 2026-05-09 10:55 | 19.13195 | 110.45847 | 30 ft | 10 kts | 151° |
| 2026-05-09 10:55 | 19.13134 | 110.45885 | 30 ft | 8 kts | 148° |
| 2026-05-09 10:55 | 19.13072 | 110.45924 | 31 ft | 17 kts | 148° |
| 2026-05-09 10:56 | 19.12975 | 110.46023 | 33 ft | 12 kts | 135° |
| 2026-05-09 10:56 | 19.12971 | 110.45979 | 32 ft | 10 kts | 330° |
| 2026-05-09 10:56 | 19.13134 | 110.45883 | 30 ft | 58 kts | 329° |
| 2026-05-09 10:56 | 19.13734 | 110.45521 | 41 ft | 133 kts | 333° |
| 2026-05-09 10:57 | 19.14661 | 110.44999 | 182 ft | 161 kts | 334° |
| 2026-05-09 10:57 | 19.15686 | 110.44315 | 417 ft | 187 kts | 332° |
| 2026-05-09 10:57 | 19.16873 | 110.43594 | 715 ft | 208 kts | 334° |
| 2026-05-09 10:57 | 19.18192 | 110.42847 | 1152 ft | 218 kts | 335° |
| 2026-05-09 10:58 | 19.19574 | 110.42123 | 1577 ft | 227 kts | 336° |
| 2026-05-09 10:58 | 19.20994 | 110.41328 | 2055 ft | 234 kts | 333° |
| 2026-05-09 10:58 | 19.22126 | 110.40627 | 2493 ft | 236 kts | 331° |
| 2026-05-09 10:58 | 19.23551 | 110.39734 | 3028 ft | 239 kts | 332° |
| 2026-05-09 10:59 | 19.25003 | 110.38840 | 3572 ft | 241 kts | 332° |
| 2026-05-09 10:59 | 19.26440 | 110.37966 | 4101 ft | 242 kts | 332° |
| 2026-05-09 10:59 | 19.27958 | 110.37194 | 4605 ft | 241 kts | 347° |
| 2026-05-09 10:59 | 19.29620 | 110.37060 | 5075 ft | 241 kts | 2° |
| 2026-05-09 11:00 | 19.31302 | 110.37077 | 5577 ft | 242 kts | 2° |
| 2026-05-09 11:00 | 19.32996 | 110.37099 | 6061 ft | 244 kts | 2° |
| 2026-05-09 11:00 | 19.34680 | 110.37122 | 6541 ft | 245 kts | 2° |
| 2026-05-09 11:00 | 19.36406 | 110.37148 | 7005 ft | 246 kts | 1° |
| 2026-05-09 11:01 | 19.38114 | 110.37172 | 7447 ft | 249 kts | 1° |
| 2026-05-09 11:01 | 19.39856 | 110.37196 | 7931 ft | 249 kts | 1° |
| 2026-05-09 11:01 | 19.41601 | 110.37221 | 8363 ft | 251 kts | 1° |
| 2026-05-09 11:01 | 19.43343 | 110.37246 | 8783 ft | 253 kts | 1° |
| 2026-05-09 11:02 | 19.45109 | 110.37270 | 9207 ft | 255 kts | 1° |
| 2026-05-09 11:02 | 19.46893 | 110.37296 | 9647 ft | 255 kts | 1° |
| 2026-05-09 11:02 | 19.48662 | 110.37321 | 10015 ft | 257 kts | 1° |
| 2026-05-09 11:02 | 19.50466 | 110.37346 | 10378 ft | 260 kts | 1° |
| 2026-05-09 11:03 | 19.52279 | 110.37372 | 10773 ft | 261 kts | 1° |
| 2026-05-09 11:03 | 19.54096 | 110.37397 | 11153 ft | 262 kts | 0° |
| 2026-05-09 11:03 | 19.55929 | 110.37423 | 11505 ft | 264 kts | 0° |
| 2026-05-09 11:03 | 19.57786 | 110.37449 | 11835 ft | 267 kts | 0° |
| 2026-05-09 11:04 | 19.59646 | 110.37476 | 12215 ft | 267 kts | 0° |
| 2026-05-09 11:04 | 19.61527 | 110.37502 | 12546 ft | 269 kts | 0° |
| 2026-05-09 11:04 | 19.63419 | 110.37528 | 12872 ft | 271 kts | 360° |
| 2026-05-09 11:04 | 19.65302 | 110.37555 | 13157 ft | 273 kts | 0° |
| 2026-05-09 11:05 | 19.67219 | 110.37582 | 13475 ft | 275 kts | 360° |
| 2026-05-09 11:05 | 19.69146 | 110.37609 | 13797 ft | 276 kts | 360° |
| 2026-05-09 11:05 | 19.71056 | 110.37637 | 14082 ft | 278 kts | 0° |
| 2026-05-09 11:05 | 19.73022 | 110.37664 | 14375 ft | 280 kts | 360° |
| 2026-05-09 11:06 | 19.74972 | 110.37692 | 14665 ft | 281 kts | 360° |
| 2026-05-09 11:06 | 19.76942 | 110.37720 | 14939 ft | 283 kts | 360° |
| 2026-05-09 11:06 | 19.78901 | 110.37747 | 15203 ft | 284 kts | 360° |
| 2026-05-09 11:06 | 19.80892 | 110.37775 | 15462 ft | 286 kts | 360° |
| 2026-05-09 11:07 | 19.82891 | 110.37804 | 15712 ft | 287 kts | 359° |
| 2026-05-09 11:07 | 19.84904 | 110.37833 | 15964 ft | 289 kts | 359° |
| 2026-05-09 11:07 | 19.86923 | 110.37862 | 16218 ft | 290 kts | 359° |
| 2026-05-09 11:07 | 19.88959 | 110.37891 | 16463 ft | 291 kts | 360° |
| 2026-05-09 11:08 | 19.90980 | 110.37920 | 16687 ft | 293 kts | 359° |
| 2026-05-09 11:08 | 19.93023 | 110.37949 | 16903 ft | 295 kts | 359° |
| 2026-05-09 11:08 | 19.95098 | 110.37978 | 17150 ft | 295 kts | 359° |
| 2026-05-09 11:08 | 19.97158 | 110.38007 | 17372 ft | 296 kts | 360° |
| 2026-05-09 11:09 | 19.99211 | 110.38037 | 17557 ft | 298 kts | 360° |
| 2026-05-09 11:09 | 20.01299 | 110.38067 | 17770 ft | 299 kts | 360° |
| 2026-05-09 11:09 | 20.03398 | 110.38097 | 17987 ft | 299 kts | 359° |
| 2026-05-09 11:09 | 20.05485 | 110.38126 | 18189 ft | 300 kts | 359° |
| 2026-05-09 11:10 | 20.07560 | 110.38159 | 18378 ft | 301 kts | 0° |
| 2026-05-09 11:10 | 20.09653 | 110.38470 | 18560 ft | 303 kts | 12° |
| 2026-05-09 11:10 | 20.11723 | 110.39024 | 18739 ft | 304 kts | 13° |
| 2026-05-09 11:10 | 20.13766 | 110.39586 | 18873 ft | 306 kts | 13° |
| 2026-05-09 11:11 | 20.15840 | 110.40154 | 19059 ft | 307 kts | 13° |
| 2026-05-09 11:11 | 20.17929 | 110.40724 | 19209 ft | 308 kts | 13° |
| 2026-05-09 11:11 | 20.19986 | 110.41283 | 19400 ft | 309 kts | 13° |
| 2026-05-09 11:11 | 20.22087 | 110.41853 | 19578 ft | 308 kts | 13° |
| 2026-05-09 11:12 | 20.24182 | 110.42420 | 19745 ft | 308 kts | 13° |
| 2026-05-09 11:12 | 20.26259 | 110.42982 | 19822 ft | 312 kts | 13° |
| 2026-05-09 11:12 | 20.28371 | 110.43552 | 20006 ft | 311 kts | 13° |
| 2026-05-09 11:12 | 20.30455 | 110.44115 | 20136 ft | 312 kts | 13° |
| 2026-05-09 11:13 | 20.32574 | 110.44687 | 20260 ft | 313 kts | 13° |
| 2026-05-09 11:13 | 20.34706 | 110.45262 | 20368 ft | 314 kts | 13° |
| 2026-05-09 11:13 | 20.36807 | 110.45830 | 20529 ft | 314 kts | 13° |
| 2026-05-09 11:13 | 20.38937 | 110.46404 | 20635 ft | 314 kts | 13° |
| 2026-05-09 11:14 | 20.41089 | 110.46985 | 20755 ft | 314 kts | 13° |
| 2026-05-09 11:14 | 20.43209 | 110.47557 | 20836 ft | 316 kts | 13° |
| 2026-05-09 11:14 | 20.45336 | 110.48132 | 20914 ft | 318 kts | 13° |
| 2026-05-09 11:14 | 20.47508 | 110.48718 | 20937 ft | 322 kts | 13° |
| 2026-05-09 11:15 | 20.49602 | 110.49613 | 20924 ft | 326 kts | 34° |
| 2026-05-09 11:15 | 20.51087 | 110.51414 | 20945 ft | 326 kts | 62° |
| 2026-05-09 11:15 | 20.51999 | 110.53638 | 20949 ft | 330 kts | 68° |
| 2026-05-09 11:15 | 20.52850 | 110.55930 | 20948 ft | 333 kts | 69° |
| 2026-05-09 11:16 | 20.53690 | 110.58212 | 20953 ft | 335 kts | 69° |
| 2026-05-09 11:16 | 20.54543 | 110.60533 | 20951 ft | 338 kts | 69° |
| 2026-05-09 11:16 | 20.55401 | 110.62867 | 20950 ft | 340 kts | 69° |
| 2026-05-09 11:16 | 20.56268 | 110.65228 | 20946 ft | 342 kts | 69° |
| 2026-05-09 11:17 | 20.57139 | 110.67599 | 20947 ft | 343 kts | 69° |
| 2026-05-09 11:17 | 20.58014 | 110.69981 | 20945 ft | 344 kts | 69° |
| 2026-05-09 11:17 | 20.58888 | 110.72363 | 20947 ft | 345 kts | 69° |
| 2026-05-09 11:17 | 20.59763 | 110.74747 | 20950 ft | 346 kts | 69° |
| 2026-05-09 11:18 | 20.60642 | 110.77143 | 20952 ft | 347 kts | 69° |
| 2026-05-09 11:18 | 20.61523 | 110.79546 | 20952 ft | 348 kts | 69° |
| 2026-05-09 11:18 | 20.62394 | 110.81924 | 20951 ft | 348 kts | 69° |
| 2026-05-09 11:18 | 20.63276 | 110.84332 | 20950 ft | 349 kts | 69° |
| 2026-05-09 11:19 | 20.64159 | 110.86743 | 20951 ft | 349 kts | 69° |
| 2026-05-09 11:19 | 20.65043 | 110.89159 | 20952 ft | 350 kts | 69° |
| 2026-05-09 11:19 | 20.65930 | 110.91585 | 20956 ft | 350 kts | 69° |
| 2026-05-09 11:19 | 20.66816 | 110.94008 | 20955 ft | 350 kts | 69° |
| 2026-05-09 11:20 | 20.67703 | 110.96434 | 20959 ft | 350 kts | 69° |
| 2026-05-09 11:20 | 20.68587 | 110.98856 | 20960 ft | 351 kts | 69° |
| 2026-05-09 11:20 | 20.69473 | 111.01282 | 20962 ft | 351 kts | 69° |
| 2026-05-09 11:20 | 20.70357 | 111.03706 | 20960 ft | 351 kts | 69° |
| 2026-05-09 11:21 | 20.71244 | 111.06137 | 20961 ft | 351 kts | 69° |
| 2026-05-09 11:21 | 20.72129 | 111.08566 | 20963 ft | 352 kts | 69° |
| 2026-05-09 11:21 | 20.73014 | 111.10995 | 20961 ft | 352 kts | 69° |
| 2026-05-09 11:21 | 20.73894 | 111.13410 | 20962 ft | 352 kts | 69° |
| 2026-05-09 11:22 | 20.74782 | 111.15853 | 20962 ft | 352 kts | 69° |
| 2026-05-09 11:22 | 20.75671 | 111.18295 | 20963 ft | 352 kts | 69° |
| 2026-05-09 11:22 | 20.76558 | 111.20735 | 20962 ft | 352 kts | 69° |
| 2026-05-09 11:22 | 20.77445 | 111.23176 | 20960 ft | 353 kts | 69° |
| 2026-05-09 11:23 | 20.78323 | 111.25594 | 20962 ft | 353 kts | 69° |
| 2026-05-09 11:23 | 20.79211 | 111.28041 | 20964 ft | 353 kts | 69° |
| 2026-05-09 11:23 | 20.80101 | 111.30494 | 20965 ft | 353 kts | 69° |
| 2026-05-09 11:23 | 20.80980 | 111.32917 | 20965 ft | 353 kts | 69° |
| 2026-05-09 11:24 | 20.81871 | 111.35375 | 20964 ft | 353 kts | 69° |
| 2026-05-09 11:24 | 20.82759 | 111.37827 | 20963 ft | 353 kts | 69° |
| 2026-05-09 11:24 | 20.83636 | 111.40247 | 20964 ft | 354 kts | 69° |
| 2026-05-09 11:24 | 20.84522 | 111.42696 | 20965 ft | 354 kts | 69° |
| 2026-05-09 11:25 | 20.85409 | 111.45149 | 20965 ft | 354 kts | 69° |
| 2026-05-09 11:25 | 20.86298 | 111.47608 | 20962 ft | 354 kts | 69° |
| 2026-05-09 11:25 | 20.87189 | 111.50072 | 20964 ft | 354 kts | 69° |
| 2026-05-09 11:25 | 20.88064 | 111.52496 | 20963 ft | 354 kts | 69° |
| 2026-05-09 11:26 | 20.88950 | 111.54951 | 20961 ft | 354 kts | 69° |
| 2026-05-09 11:26 | 20.89838 | 111.57410 | 20965 ft | 354 kts | 69° |
| 2026-05-09 11:26 | 20.90724 | 111.59867 | 20964 ft | 354 kts | 69° |
| 2026-05-09 11:26 | 20.91608 | 111.62322 | 20963 ft | 354 kts | 69° |
| 2026-05-09 11:27 | 20.92485 | 111.64757 | 20965 ft | 354 kts | 69° |
| 2026-05-09 11:27 | 20.93372 | 111.67220 | 20963 ft | 354 kts | 70° |
| 2026-05-09 11:27 | 20.94260 | 111.69686 | 20964 ft | 354 kts | 69° |
| 2026-05-09 11:27 | 20.95145 | 111.72147 | 20960 ft | 354 kts | 70° |
| 2026-05-09 11:28 | 20.96028 | 111.74603 | 20960 ft | 354 kts | 70° |
| 2026-05-09 11:28 | 20.96911 | 111.77062 | 20960 ft | 354 kts | 70° |
| 2026-05-09 11:28 | 20.97795 | 111.79523 | 20961 ft | 354 kts | 70° |
| 2026-05-09 11:28 | 20.98666 | 111.81947 | 20962 ft | 354 kts | 70° |
| 2026-05-09 11:29 | 20.99549 | 111.84411 | 20964 ft | 354 kts | 70° |
| 2026-05-09 11:29 | 21.00434 | 111.86877 | 20969 ft | 354 kts | 70° |
| 2026-05-09 11:29 | 21.01316 | 111.89339 | 20966 ft | 354 kts | 70° |
| 2026-05-09 11:29 | 21.02200 | 111.91806 | 20965 ft | 354 kts | 70° |
| 2026-05-09 11:30 | 21.03069 | 111.94235 | 20964 ft | 354 kts | 70° |
| 2026-05-09 11:30 | 21.03949 | 111.96693 | 20965 ft | 354 kts | 70° |
| 2026-05-09 11:30 | 21.04829 | 111.99153 | 20966 ft | 354 kts | 70° |
| 2026-05-09 11:30 | 21.05708 | 112.01613 | 20968 ft | 354 kts | 70° |
| 2026-05-09 11:31 | 21.06588 | 112.04076 | 20967 ft | 354 kts | 70° |
| 2026-05-09 11:31 | 21.07470 | 112.06545 | 20968 ft | 354 kts | 70° |
| 2026-05-09 11:31 | 21.08348 | 112.09006 | 20966 ft | 354 kts | 70° |
| 2026-05-09 11:31 | 21.09227 | 112.11471 | 20967 ft | 354 kts | 70° |
| 2026-05-09 11:32 | 21.10109 | 112.13944 | 20969 ft | 354 kts | 70° |
| 2026-05-09 11:32 | 21.10988 | 112.16411 | 20971 ft | 354 kts | 70° |
| 2026-05-09 11:32 | 21.11859 | 112.18858 | 20971 ft | 354 kts | 70° |
| 2026-05-09 11:32 | 21.12738 | 112.21326 | 20969 ft | 355 kts | 70° |
| 2026-05-09 11:33 | 21.13615 | 112.23792 | 20971 ft | 355 kts | 70° |
| 2026-05-09 11:33 | 21.14494 | 112.26264 | 20973 ft | 355 kts | 70° |
| 2026-05-09 11:33 | 21.16253 | 112.31216 | 20970 ft | 355 kts | 70° |
| 2026-05-09 11:34 | 21.17131 | 112.33686 | 20967 ft | 355 kts | 70° |
| 2026-05-09 11:34 | 21.18006 | 112.36153 | 20970 ft | 355 kts | 70° |
| 2026-05-09 11:34 | 21.18883 | 112.38625 | 20973 ft | 356 kts | 70° |
| 2026-05-09 11:34 | 21.19760 | 112.41100 | 20972 ft | 356 kts | 70° |
| 2026-05-09 11:35 | 21.20639 | 112.43581 | 20971 ft | 356 kts | 70° |
| 2026-05-09 11:35 | 21.21514 | 112.46053 | 20972 ft | 356 kts | 70° |
| 2026-05-09 11:35 | 21.22392 | 112.48534 | 20974 ft | 356 kts | 70° |
| 2026-05-09 11:35 | 21.23260 | 112.50988 | 20976 ft | 356 kts | 70° |
| 2026-05-09 11:36 | 21.24137 | 112.53469 | 20975 ft | 356 kts | 70° |
| 2026-05-09 11:36 | 21.25018 | 112.55962 | 20976 ft | 356 kts | 70° |
| 2026-05-09 11:36 | 21.25898 | 112.58454 | 20977 ft | 356 kts | 70° |
| 2026-05-09 11:36 | 21.26765 | 112.60910 | 20977 ft | 357 kts | 70° |
| 2026-05-09 11:37 | 21.27645 | 112.63404 | 20977 ft | 357 kts | 70° |
| 2026-05-09 11:37 | 21.28525 | 112.65901 | 20979 ft | 357 kts | 70° |
| 2026-05-09 11:37 | 21.29392 | 112.68362 | 20981 ft | 357 kts | 70° |
| 2026-05-09 11:37 | 21.30270 | 112.70853 | 20981 ft | 357 kts | 71° |
| 2026-05-09 11:38 | 21.31155 | 112.73368 | 20987 ft | 357 kts | 71° |
| 2026-05-09 11:38 | 21.32029 | 112.75853 | 20988 ft | 357 kts | 71° |
| 2026-05-09 11:38 | 21.32894 | 112.78312 | 20989 ft | 357 kts | 71° |
| 2026-05-09 11:38 | 21.33770 | 112.80805 | 20989 ft | 357 kts | 71° |
| 2026-05-09 11:39 | 21.34648 | 112.83305 | 20990 ft | 357 kts | 71° |
| 2026-05-09 11:39 | 21.35526 | 112.85805 | 20992 ft | 357 kts | 71° |
| 2026-05-09 11:39 | 21.36404 | 112.88306 | 20993 ft | 358 kts | 70° |
| 2026-05-09 11:40 | 21.38150 | 112.93285 | 20995 ft | 358 kts | 71° |
| 2026-05-09 11:40 | 21.39017 | 112.95763 | 20995 ft | 358 kts | 71° |
| 2026-05-09 11:40 | 21.39894 | 112.98267 | 20998 ft | 358 kts | 71° |
| 2026-05-09 11:40 | 21.40772 | 113.00775 | 20995 ft | 358 kts | 71° |
| 2026-05-09 11:41 | 21.41647 | 113.03278 | 20995 ft | 358 kts | 71° |
| 2026-05-09 11:41 | 21.42520 | 113.05776 | 20996 ft | 358 kts | 71° |
| 2026-05-09 11:41 | 21.43397 | 113.08286 | 20995 ft | 358 kts | 71° |
| 2026-05-09 11:41 | 21.44264 | 113.10768 | 20996 ft | 359 kts | 71° |
| 2026-05-09 11:42 | 21.45145 | 113.13293 | 20997 ft | 359 kts | 71° |
| 2026-05-09 11:42 | 21.46020 | 113.15802 | 20995 ft | 359 kts | 71° |
| 2026-05-09 11:42 | 21.46889 | 113.18295 | 20994 ft | 359 kts | 71° |
| 2026-05-09 11:42 | 21.47763 | 113.20802 | 20995 ft | 359 kts | 71° |
| 2026-05-09 11:43 | 21.48639 | 113.23318 | 21000 ft | 359 kts | 71° |
| 2026-05-09 11:43 | 21.49511 | 113.25823 | 20994 ft | 360 kts | 71° |
| 2026-05-09 11:43 | 21.50389 | 113.28347 | 20694 ft | 360 kts | 70° |
| 2026-05-09 11:43 | 21.51269 | 113.30872 | 20330 ft | 362 kts | 70° |
| 2026-05-09 11:44 | 21.52143 | 113.33383 | 19954 ft | 363 kts | 70° |
| 2026-05-09 11:44 | 21.53025 | 113.35922 | 19561 ft | 365 kts | 70° |
| 2026-05-09 11:44 | 21.53910 | 113.38469 | 19163 ft | 366 kts | 70° |
| 2026-05-09 11:44 | 21.54799 | 113.41030 | 18760 ft | 366 kts | 69° |
| 2026-05-09 11:45 | 21.55683 | 113.43579 | 18362 ft | 367 kts | 69° |
| 2026-05-09 11:45 | 21.56570 | 113.46137 | 17967 ft | 367 kts | 69° |
| 2026-05-09 11:45 | 21.57459 | 113.48704 | 17565 ft | 366 kts | 69° |
| 2026-05-09 11:45 | 21.58345 | 113.51265 | 17166 ft | 366 kts | 69° |
| 2026-05-09 11:46 | 21.59230 | 113.53822 | 16767 ft | 365 kts | 69° |
| 2026-05-09 11:46 | 21.60114 | 113.56381 | 16368 ft | 365 kts | 69° |
| 2026-05-09 11:46 | 21.60991 | 113.58913 | 15963 ft | 355 kts | 69° |
| 2026-05-09 11:46 | 21.61831 | 113.61338 | 15584 ft | 345 kts | 69° |
| 2026-05-09 11:47 | 21.62658 | 113.63729 | 15216 ft | 335 kts | 68° |
| 2026-05-09 11:47 | 21.63452 | 113.66026 | 14857 ft | 327 kts | 69° |
| 2026-05-09 11:47 | 21.64240 | 113.68307 | 14503 ft | 320 kts | 69° |
| 2026-05-09 11:47 | 21.65102 | 113.70449 | 14125 ft | 312 kts | 57° |
| 2026-05-09 11:48 | 21.66526 | 113.72145 | 13834 ft | 301 kts | 41° |
| 2026-05-09 11:48 | 21.68061 | 113.73652 | 13502 ft | 295 kts | 40° |
| 2026-05-09 11:48 | 21.69578 | 113.75128 | 13177 ft | 290 kts | 40° |
| 2026-05-09 11:48 | 21.71063 | 113.76573 | 12860 ft | 285 kts | 40° |
| 2026-05-09 11:49 | 21.72508 | 113.77980 | 12553 ft | 280 kts | 40° |
| 2026-05-09 11:49 | 21.73945 | 113.79380 | 12251 ft | 276 kts | 41° |
| 2026-05-09 11:49 | 21.75361 | 113.80761 | 11955 ft | 272 kts | 41° |
| 2026-05-09 11:49 | 21.76743 | 113.82111 | 11662 ft | 268 kts | 41° |
| 2026-05-09 11:50 | 21.78123 | 113.83458 | 11356 ft | 265 kts | 41° |
| 2026-05-09 11:50 | 21.79489 | 113.84792 | 11063 ft | 261 kts | 40° |
| 2026-05-09 11:50 | 21.80813 | 113.86087 | 10783 ft | 258 kts | 40° |
| 2026-05-09 11:50 | 21.82142 | 113.87386 | 10505 ft | 258 kts | 41° |
| 2026-05-09 11:51 | 21.83499 | 113.88705 | 10191 ft | 270 kts | 39° |
| 2026-05-09 11:51 | 21.85184 | 113.89616 | 9809 ft | 275 kts | 9° |
| 2026-05-09 11:51 | 21.87075 | 113.89401 | 9542 ft | 277 kts | 339° |
| 2026-05-09 11:51 | 21.88874 | 113.88554 | 9242 ft | 282 kts | 334° |
| 2026-05-09 11:52 | 21.90640 | 113.87659 | 8923 ft | 276 kts | 334° |
| 2026-05-09 11:52 | 21.92331 | 113.86792 | 8626 ft | 265 kts | 334° |
| 2026-05-09 11:52 | 21.93982 | 113.85950 | 8339 ft | 254 kts | 334° |
| 2026-05-09 11:52 | 21.95552 | 113.85155 | 8070 ft | 244 kts | 334° |
| 2026-05-09 11:53 | 21.97053 | 113.84397 | 7806 ft | 234 kts | 334° |
| 2026-05-09 11:53 | 21.98349 | 113.83747 | 7581 ft | 231 kts | 335° |
| 2026-05-09 11:53 | 21.99387 | 113.83229 | 7401 ft | 229 kts | 335° |
| 2026-05-09 11:53 | 22.00835 | 113.82506 | 7165 ft | 226 kts | 335° |
| 2026-05-09 11:54 | 22.02252 | 113.81798 | 6928 ft | 224 kts | 335° |
| 2026-05-09 11:54 | 22.03666 | 113.81092 | 6678 ft | 221 kts | 335° |
| 2026-05-09 11:54 | 22.05066 | 113.80401 | 6439 ft | 219 kts | 336° |
| 2026-05-09 11:54 | 22.06468 | 113.79763 | 6190 ft | 218 kts | 338° |
| 2026-05-09 11:55 | 22.07856 | 113.79140 | 5937 ft | 216 kts | 338° |
| 2026-05-09 11:56 | 22.14746 | 113.75978 | 4644 ft | 213 kts | 338° |
| 2026-05-09 11:56 | 22.16099 | 113.75333 | 4386 ft | 213 kts | 338° |
| 2026-05-09 11:56 | 22.17464 | 113.74678 | 4138 ft | 214 kts | 338° |
| 2026-05-09 11:57 | 22.18816 | 113.74019 | 3899 ft | 215 kts | 338° |
| 2026-05-09 11:57 | 22.20193 | 113.73341 | 3656 ft | 214 kts | 338° |
| 2026-05-09 11:57 | 22.21571 | 113.72838 | 3388 ft | 209 kts | 358° |
| 2026-05-09 11:57 | 22.22957 | 113.73143 | 3084 ft | 199 kts | 30° |
| 2026-05-09 11:58 | 22.24113 | 113.73910 | 2786 ft | 190 kts | 34° |
| 2026-05-09 11:58 | 22.25205 | 113.74656 | 2453 ft | 184 kts | 35° |
| 2026-05-09 11:58 | 22.26242 | 113.75412 | 2079 ft | 178 kts | 46° |
| 2026-05-09 11:58 | 22.26832 | 113.76514 | 1816 ft | 168 kts | 72° |
| 2026-05-09 11:59 | 22.27193 | 113.77701 | 1688 ft | 164 kts | 73° |
| 2026-05-09 11:59 | 22.27563 | 113.78847 | 1624 ft | 155 kts | 72° |
| 2026-05-09 11:59 | 22.27892 | 113.79861 | 1587 ft | 130 kts | 72° |
| 2026-05-09 11:59 | 22.28170 | 113.80756 | 1543 ft | 124 kts | 74° |
| 2026-05-09 12:00 | 22.28437 | 113.81618 | 1572 ft | 117 kts | 73° |
| 2026-05-09 12:00 | 22.28710 | 113.82473 | 1492 ft | 122 kts | 72° |
| 2026-05-09 12:00 | 22.28993 | 113.83349 | 1319 ft | 126 kts | 72° |
| 2026-05-09 12:00 | 22.29281 | 113.84225 | 1119 ft | 121 kts | 72° |
| 2026-05-09 12:01 | 22.29548 | 113.85052 | 867 ft | 116 kts | 72° |
| 2026-05-09 12:01 | 22.29821 | 113.85886 | 636 ft | 119 kts | 71° |
| 2026-05-09 12:01 | 22.30110 | 113.86734 | 614 ft | 119 kts | 72° |
| 2026-05-09 12:01 | 22.30382 | 113.87608 | 314 ft | 127 kts | 73° |
| 2026-05-09 12:02 | 22.30686 | 113.88509 | 204 ft | 126 kts | 71° |
| 2026-05-09 12:02 | 22.30978 | 113.89414 | 94 ft | 131 kts | 75° |
| 2026-05-09 12:02 | 22.31279 | 113.90343 | 43 ft | 125 kts | 75° |
| 2026-05-09 12:02 | 22.31506 | 113.91086 | 37 ft | 78 kts | 74° |
| 2026-05-09 12:03 | 22.31637 | 113.91496 | 37 ft | 33 kts | 72° |
| 2026-05-09 12:03 | 22.31654 | 113.91676 | 37 ft | 16 kts | 94° |
| 2026-05-09 12:03 | 22.31641 | 113.91782 | 37 ft | 11 kts | 108° |
| 2026-05-09 12:03 | 22.31624 | 113.91848 | 37 ft | 6 kts | 104° |
| 2026-05-09 12:04 | 22.31615 | 113.91886 | 37 ft | 3 kts | 104° |
| 2026-05-09 12:04 | 22.31613 | 113.91903 | 37 ft | 1 kts | 96° |
| 2026-05-09 12:04 | 22.31612 | 113.91918 | 37 ft | 8 kts | 94° |
| 2026-05-09 12:04 | 22.31617 | 113.91994 | 37 ft | 8 kts | 80° |
| 2026-05-09 12:05 | 22.31636 | 113.92058 | 37 ft | 13 kts | 70° |
| 2026-05-09 12:05 | 22.31670 | 113.92167 | 37 ft | 14 kts | 72° |
| 2026-05-09 12:05 | 22.31699 | 113.92251 | 37 ft | 9 kts | 70° |
| 2026-05-09 12:05 | 22.31717 | 113.92306 | 37 ft | 6 kts | 71° |
| 2026-05-09 12:06 | 22.31728 | 113.92342 | 37 ft | 4 kts | 71° |
| 2026-05-09 12:06 | 22.31738 | 113.92381 | 37 ft | 6 kts | 84° |
| 2026-05-09 12:06 | 22.31717 | 113.92420 | 37 ft | 7 kts | 148° |
| 2026-05-09 12:06 | 22.31664 | 113.92446 | 37 ft | 9 kts | 155° |
| 2026-05-09 12:07 | 22.31612 | 113.92489 | 37 ft | 9 kts | 121° |
| 2026-05-09 12:07 | 22.31586 | 113.92553 | 37 ft | 8 kts | 114° |
| 2026-05-09 12:07 | 22.31568 | 113.92596 | 37 ft | 4 kts | 116° |
| 2026-05-09 12:07 | 22.31555 | 113.92623 | 37 ft | 6 kts | 117° |
| 2026-05-09 12:08 | 22.31548 | 113.92660 | 37 ft | 4 kts | 43° |
| 2026-05-09 12:08 | 22.31569 | 113.92684 | 37 ft | 7 kts | 60° |
| 2026-05-09 12:08 | 22.31601 | 113.92724 | 37 ft | 6 kts | 24° |
| 2026-05-09 12:08 | 22.31613 | 113.92729 | 37 ft | 0 kts | 25° |